sensor_id;sensor_type;location;lat;lon;timestamp;P1;durP1;ratioP1;P2;durP2;ratioP2
9280;SDS011;4679;47.966;7.958;2022-12-24T07:18:04;4.63;;;0.83;;
9280;SDS011;4679;47.966;7.958;2022-12-24T07:20:07;5.43;;;0.70;;
9280;SDS011;4679;47.966;7.958;2022-12-24T07:22:11;10.07;;;0.90;;
9280;SDS011;4679;47.966;7.958;2022-12-24T07:24:13;3.53;;;0.70;;
9280;SDS011;4679;47.966;7.958;2022-12-24T07:26:15;1.33;;;0.50;;
9280;SDS011;4679;47.966;7.958;2022-12-24T07:28:17;1.83;;;0.60;;
9280;SDS011;4679;47.966;7.958;2022-12-24T07:30:18;3.00;;;0.80;;
9280;SDS011;4679;47.966;7.958;2022-12-24T07:32:20;2.53;;;0.50;;
9280;SDS011;4679;47.966;7.958;2022-12-24T07:34:23;4.17;;;0.80;;
9280;SDS011;4679;47.966;7.958;2022-12-24T07:36:25;3.33;;;0.63;;
9280;SDS011;4679;47.966;7.958;2022-12-24T07:38:28;5.40;;;0.67;;
9280;SDS011;4679;47.966;7.958;2022-12-24T07:40:32;3.60;;;0.60;;
9280;SDS011;4679;47.966;7.958;2022-12-24T07:42:34;3.40;;;0.90;;
9280;SDS011;4679;47.966;7.958;2022-12-24T07:44:35;2.83;;;0.77;;
9280;SDS011;4679;47.966;7.958;2022-12-24T07:46:37;5.10;;;0.63;;
9280;SDS011;4679;47.966;7.958;2022-12-24T07:48:39;5.20;;;0.80;;
9280;SDS011;4679;47.966;7.958;2022-12-24T07:50:42;3.67;;;0.60;;
9280;SDS011;4679;47.966;7.958;2022-12-24T07:52:44;2.23;;;0.70;;
9280;SDS011;4679;47.966;7.958;2022-12-24T07:54:45;5.80;;;0.67;;
9280;SDS011;4679;47.966;7.958;2022-12-24T07:56:47;3.77;;;0.53;;
9280;SDS011;4679;47.966;7.958;2022-12-24T07:58:49;4.97;;;1.00;;
9280;SDS011;4679;47.966;7.958;2022-12-24T08:00:54;2.83;;;1.10;;
9280;SDS011;4679;47.966;7.958;2022-12-24T08:02:57;3.70;;;1.20;;
9280;SDS011;4679;47.966;7.958;2022-12-24T08:04:59;4.23;;;0.93;;
9280;SDS011;4679;47.966;7.958;2022-12-24T08:07:02;8.30;;;1.10;;
9280;SDS011;4679;47.966;7.958;2022-12-24T08:09:04;7.00;;;0.70;;
9280;SDS011;4679;47.966;7.958;2022-12-24T08:11:06;8.03;;;1.13;;
9280;SDS011;4679;47.966;7.958;2022-12-24T08:13:08;6.90;;;0.87;;
9280;SDS011;4679;47.966;7.958;2022-12-24T08:15:09;5.93;;;1.33;;
9280;SDS011;4679;47.966;7.958;2022-12-24T08:17:11;5.27;;;0.90;;
9280;SDS011;4679;47.966;7.958;2022-12-24T08:19:13;5.40;;;1.60;;
9280;SDS011;4679;47.966;7.958;2022-12-24T08:21:15;5.53;;;1.83;;
9280;SDS011;4679;47.966;7.958;2022-12-24T08:23:18;4.60;;;1.90;;
9280;SDS011;4679;47.966;7.958;2022-12-24T08:25:20;6.60;;;1.37;;
9280;SDS011;4679;47.966;7.958;2022-12-24T08:27:22;5.67;;;1.40;;
9280;SDS011;4679;47.966;7.958;2022-12-24T08:29:24;5.10;;;2.00;;
9280;SDS011;4679;47.966;7.958;2022-12-24T08:31:25;7.73;;;1.20;;
9280;SDS011;4679;47.966;7.958;2022-12-24T08:33:27;6.43;;;1.30;;
9280;SDS011;4679;47.966;7.958;2022-12-24T08:35:29;3.17;;;1.10;;
9280;SDS011;4679;47.966;7.958;2022-12-24T08:37:31;5.10;;;1.10;;
9280;SDS011;4679;47.966;7.958;2022-12-24T08:39:34;5.47;;;0.80;;
9280;SDS011;4679;47.966;7.958;2022-12-24T08:41:35;5.80;;;1.80;;
9280;SDS011;4679;47.966;7.958;2022-12-24T08:43:37;4.43;;;0.90;;
9280;SDS011;4679;47.966;7.958;2022-12-24T08:45:39;3.53;;;1.10;;
9280;SDS011;4679;47.966;7.958;2022-12-24T08:47:41;4.97;;;1.10;;
9280;SDS011;4679;47.966;7.958;2022-12-24T08:49:43;5.60;;;1.10;;
9280;SDS011;4679;47.966;7.958;2022-12-24T08:51:44;8.23;;;0.90;;
9280;SDS011;4679;47.966;7.958;2022-12-24T08:53:46;8.63;;;1.10;;
9280;SDS011;4679;47.966;7.958;2022-12-24T08:55:49;2.97;;;0.80;;
9280;SDS011;4679;47.966;7.958;2022-12-24T08:57:51;5.93;;;0.83;;
9280;SDS011;4679;47.966;7.958;2022-12-24T08:59:53;4.33;;;0.80;;
9280;SDS011;4679;47.966;7.958;2022-12-24T09:01:54;5.13;;;1.40;;
9280;SDS011;4679;47.966;7.958;2022-12-24T09:03:56;6.03;;;0.93;;
9280;SDS011;4679;47.966;7.958;2022-12-24T09:05:58;5.60;;;0.97;;
9280;SDS011;4679;47.966;7.958;2022-12-24T09:08:00;6.37;;;0.90;;
9280;SDS011;4679;47.966;7.958;2022-12-24T09:10:02;7.60;;;0.87;;
9280;SDS011;4679;47.966;7.958;2022-12-24T09:12:06;5.90;;;0.90;;
9280;SDS011;4679;47.966;7.958;2022-12-24T09:14:09;7.77;;;1.20;;
9280;SDS011;4679;47.966;7.958;2022-12-24T09:16:11;6.70;;;1.57;;
9280;SDS011;4679;47.966;7.958;2022-12-24T09:18:13;6.87;;;0.90;;
9280;SDS011;4679;47.966;7.958;2022-12-24T09:20:14;4.07;;;0.80;;
9280;SDS011;4679;47.966;7.958;2022-12-24T09:22:16;5.63;;;1.27;;
9280;SDS011;4679;47.966;7.958;2022-12-24T09:24:18;3.90;;;1.17;;
9280;SDS011;4679;47.966;7.958;2022-12-24T09:26:20;2.27;;;0.70;;
9280;SDS011;4679;47.966;7.958;2022-12-24T09:28:24;4.83;;;1.17;;
9280;SDS011;4679;47.966;7.958;2022-12-24T09:30:26;4.03;;;1.17;;
9280;SDS011;4679;47.966;7.958;2022-12-24T09:32:27;4.90;;;0.70;;
9280;SDS011;4679;47.966;7.958;2022-12-24T09:34:29;3.90;;;0.93;;
9280;SDS011;4679;47.966;7.958;2022-12-24T09:36:32;5.57;;;1.10;;
9280;SDS011;4679;47.966;7.958;2022-12-24T09:38:34;6.10;;;0.90;;
9280;SDS011;4679;47.966;7.958;2022-12-24T09:40:38;6.13;;;0.80;;
9280;SDS011;4679;47.966;7.958;2022-12-24T09:42:41;5.07;;;0.73;;
9280;SDS011;4679;47.966;7.958;2022-12-24T09:44:53;4.77;;;0.77;;
9280;SDS011;4679;47.966;7.958;2022-12-24T09:46:59;2.87;;;0.90;;
9280;SDS011;4679;47.966;7.958;2022-12-24T09:49:07;3.87;;;0.90;;
9280;SDS011;4679;47.966;7.958;2022-12-24T09:51:15;3.73;;;0.70;;
9280;SDS011;4679;47.966;7.958;2022-12-24T09:53:27;4.00;;;1.00;;
9280;SDS011;4679;47.966;7.958;2022-12-24T09:55:35;5.90;;;0.93;;
9280;SDS011;4679;47.966;7.958;2022-12-24T09:57:43;5.80;;;1.00;;
9280;SDS011;4679;47.966;7.958;2022-12-24T09:59:47;7.60;;;1.27;;
9280;SDS011;4679;47.966;7.958;2022-12-24T10:01:52;3.97;;;0.87;;
9280;SDS011;4679;47.966;7.958;2022-12-24T10:03:55;4.50;;;1.30;;
9280;SDS011;4679;47.966;7.958;2022-12-24T10:06:01;4.57;;;1.17;;
9280;SDS011;4679;47.966;7.958;2022-12-24T10:08:10;3.50;;;0.80;;
9280;SDS011;4679;47.966;7.958;2022-12-24T10:10:22;4.67;;;0.90;;
9280;SDS011;4679;47.966;7.958;2022-12-24T10:12:33;2.23;;;0.80;;
9280;SDS011;4679;47.966;7.958;2022-12-24T10:14:45;6.47;;;0.63;;
9280;SDS011;4679;47.966;7.958;2022-12-24T10:17:02;4.87;;;0.90;;
9280;SDS011;4679;47.966;7.958;2022-12-24T10:19:23;4.80;;;0.97;;
9280;SDS011;4679;47.966;7.958;2022-12-24T10:21:34;5.60;;;1.43;;
9280;SDS011;4679;47.966;7.958;2022-12-24T10:23:42;3.30;;;1.17;;
9280;SDS011;4679;47.966;7.958;2022-12-24T10:25:52;4.47;;;1.13;;
9280;SDS011;4679;47.966;7.958;2022-12-24T10:28:01;5.80;;;0.80;;
9280;SDS011;4679;47.966;7.958;2022-12-24T10:30:13;6.43;;;1.10;;
9280;SDS011;4679;47.966;7.958;2022-12-24T10:32:21;6.37;;;1.40;;
9280;SDS011;4679;47.966;7.958;2022-12-24T10:34:27;2.73;;;0.73;;
9280;SDS011;4679;47.966;7.958;2022-12-24T10:36:33;5.07;;;1.03;;
9280;SDS011;4679;47.966;7.958;2022-12-24T10:38:35;3.23;;;1.17;;
9280;SDS011;4679;47.966;7.958;2022-12-24T10:40:38;2.10;;;1.00;;
9280;SDS011;4679;47.966;7.958;2022-12-24T10:42:43;2.50;;;0.80;;
9280;SDS011;4679;47.966;7.958;2022-12-24T10:44:45;3.70;;;0.70;;
9280;SDS011;4679;47.966;7.958;2022-12-24T10:46:50;6.10;;;0.70;;
9280;SDS011;4679;47.966;7.958;2022-12-24T10:48:54;2.23;;;0.50;;
9280;SDS011;4679;47.966;7.958;2022-12-24T10:51:01;1.73;;;0.93;;
9280;SDS011;4679;47.966;7.958;2022-12-24T10:53:06;1.00;;;0.50;;
9280;SDS011;4679;47.966;7.958;2022-12-24T10:55:20;2.17;;;0.60;;
9280;SDS011;4679;47.966;7.958;2022-12-24T10:57:24;3.23;;;0.70;;
9280;SDS011;4679;47.966;7.958;2022-12-24T10:59:27;1.73;;;0.53;;
9280;SDS011;4679;47.966;7.958;2022-12-24T11:03:59;2.03;;;0.60;;
9280;SDS011;4679;47.966;7.958;2022-12-24T11:06:05;2.63;;;0.50;;
9280;SDS011;4679;47.966;7.958;2022-12-24T11:08:13;4.80;;;0.60;;
9280;SDS011;4679;47.966;7.958;2022-12-24T11:10:22;2.43;;;0.40;;
9280;SDS011;4679;47.966;7.958;2022-12-24T11:12:25;4.00;;;0.30;;
9280;SDS011;4679;47.966;7.958;2022-12-24T11:14:31;1.37;;;0.47;;
9280;SDS011;4679;47.966;7.958;2022-12-24T11:16:35;2.20;;;0.60;;
9280;SDS011;4679;47.966;7.958;2022-12-24T11:18:38;1.23;;;0.43;;
9280;SDS011;4679;47.966;7.958;2022-12-24T11:20:50;2.63;;;0.93;;
9280;SDS011;4679;47.966;7.958;2022-12-24T11:22:53;2.43;;;1.17;;
9280;SDS011;4679;47.966;7.958;2022-12-24T11:24:57;2.43;;;1.90;;
9280;SDS011;4679;47.966;7.958;2022-12-24T11:27:22;11.30;;;10.43;;
9280;SDS011;4679;47.966;7.958;2022-12-24T11:29:29;2.50;;;1.07;;
9280;SDS011;4679;47.966;7.958;2022-12-24T11:31:31;0.87;;;0.40;;
9280;SDS011;4679;47.966;7.958;2022-12-24T11:33:44;2.10;;;0.47;;
9280;SDS011;4679;47.966;7.958;2022-12-24T11:35:55;3.50;;;1.10;;
9280;SDS011;4679;47.966;7.958;2022-12-24T11:38:08;1.67;;;0.70;;
9280;SDS011;4679;47.966;7.958;2022-12-24T11:40:17;4.20;;;0.57;;
9280;SDS011;4679;47.966;7.958;2022-12-24T11:42:22;1.60;;;0.80;;
9280;SDS011;4679;47.966;7.958;2022-12-24T11:44:27;1.40;;;0.47;;
9280;SDS011;4679;47.966;7.958;2022-12-24T11:46:36;1.87;;;0.67;;
9280;SDS011;4679;47.966;7.958;2022-12-24T11:48:40;4.13;;;0.60;;
9280;SDS011;4679;47.966;7.958;2022-12-24T11:50:42;2.80;;;0.53;;
9280;SDS011;4679;47.966;7.958;2022-12-24T11:52:58;2.10;;;0.40;;
9280;SDS011;4679;47.966;7.958;2022-12-24T11:55:15;2.50;;;0.50;;
9280;SDS011;4679;47.966;7.958;2022-12-24T11:57:21;3.03;;;0.53;;
9280;SDS011;4679;47.966;7.958;2022-12-24T11:59:32;2.77;;;0.20;;
9280;SDS011;4679;47.966;7.958;2022-12-24T12:01:41;1.77;;;0.37;;
9280;SDS011;4679;47.966;7.958;2022-12-24T12:03:50;0.40;;;0.20;;
9280;SDS011;4679;47.966;7.958;2022-12-24T12:05:54;2.13;;;0.37;;
9280;SDS011;4679;47.966;7.958;2022-12-24T12:08:03;1.70;;;0.50;;
9280;SDS011;4679;47.966;7.958;2022-12-24T12:10:14;3.83;;;0.50;;
9280;SDS011;4679;47.966;7.958;2022-12-24T12:12:20;0.83;;;0.40;;
9280;SDS011;4679;47.966;7.958;2022-12-24T12:14:24;1.63;;;0.30;;
9280;SDS011;4679;47.966;7.958;2022-12-24T12:16:31;1.73;;;0.30;;
9280;SDS011;4679;47.966;7.958;2022-12-24T12:18:54;2.40;;;0.30;;
9280;SDS011;4679;47.966;7.958;2022-12-24T12:21:01;0.70;;;0.23;;
9280;SDS011;4679;47.966;7.958;2022-12-24T12:23:10;0.63;;;0.40;;
9280;SDS011;4679;47.966;7.958;2022-12-24T12:25:18;0.70;;;0.20;;
9280;SDS011;4679;47.966;7.958;2022-12-24T12:27:26;1.30;;;0.40;;
9280;SDS011;4679;47.966;7.958;2022-12-24T12:29:31;0.40;;;0.30;;
9280;SDS011;4679;47.966;7.958;2022-12-24T12:31:37;0.93;;;0.30;;
9280;SDS011;4679;47.966;7.958;2022-12-24T12:33:43;0.57;;;0.20;;
9280;SDS011;4679;47.966;7.958;2022-12-24T12:35:49;1.13;;;0.30;;
9280;SDS011;4679;47.966;7.958;2022-12-24T12:37:54;0.67;;;0.30;;
9280;SDS011;4679;47.966;7.958;2022-12-24T12:39:59;1.67;;;0.40;;
9280;SDS011;4679;47.966;7.958;2022-12-24T12:42:01;1.80;;;0.30;;
9280;SDS011;4679;47.966;7.958;2022-12-24T12:44:15;1.43;;;0.37;;
9280;SDS011;4679;47.966;7.958;2022-12-24T12:46:45;2.53;;;0.30;;
9280;SDS011;4679;47.966;7.958;2022-12-24T12:49:01;1.13;;;0.40;;
9280;SDS011;4679;47.966;7.958;2022-12-24T12:51:14;0.93;;;0.30;;
9280;SDS011;4679;47.966;7.958;2022-12-24T12:53:37;0.60;;;0.27;;
9280;SDS011;4679;47.966;7.958;2022-12-24T12:55:54;0.27;;;0.20;;
9280;SDS011;4679;47.966;7.958;2022-12-24T12:58:07;1.43;;;0.67;;
9280;SDS011;4679;47.966;7.958;2022-12-24T13:00:16;1.53;;;0.40;;
9280;SDS011;4679;47.966;7.958;2022-12-24T13:02:24;1.10;;;0.23;;
9280;SDS011;4679;47.966;7.958;2022-12-24T13:07:50;1.17;;;0.60;;
9280;SDS011;4679;47.966;7.958;2022-12-24T13:12:41;2.07;;;0.53;;
9280;SDS011;4679;47.966;7.958;2022-12-24T13:15:06;2.30;;;0.40;;
9280;SDS011;4679;47.966;7.958;2022-12-24T13:17:33;3.33;;;0.70;;
9280;SDS011;4679;47.966;7.958;2022-12-24T13:19:54;1.77;;;0.70;;
9280;SDS011;4679;47.966;7.958;2022-12-24T13:22:13;1.10;;;0.30;;
9280;SDS011;4679;47.966;7.958;2022-12-24T13:24:17;1.70;;;0.30;;
9280;SDS011;4679;47.966;7.958;2022-12-24T13:26:21;0.43;;;0.20;;
9280;SDS011;4679;47.966;7.958;2022-12-24T13:28:31;0.90;;;0.23;;
9280;SDS011;4679;47.966;7.958;2022-12-24T13:30:37;0.53;;;0.20;;
9280;SDS011;4679;47.966;7.958;2022-12-24T13:32:49;1.73;;;0.30;;
9280;SDS011;4679;47.966;7.958;2022-12-24T13:34:52;1.33;;;0.43;;
9280;SDS011;4679;47.966;7.958;2022-12-24T13:37:02;0.80;;;0.40;;
9280;SDS011;4679;47.966;7.958;2022-12-24T13:39:10;0.77;;;0.40;;
9280;SDS011;4679;47.966;7.958;2022-12-24T13:44:03;0.90;;;0.33;;
9280;SDS011;4679;47.966;7.958;2022-12-24T13:46:25;2.27;;;0.50;;
9280;SDS011;4679;47.966;7.958;2022-12-24T13:48:48;0.60;;;0.40;;
9280;SDS011;4679;47.966;7.958;2022-12-24T13:50:50;0.83;;;0.40;;
9280;SDS011;4679;47.966;7.958;2022-12-24T13:52:53;1.80;;;0.60;;
9280;SDS011;4679;47.966;7.958;2022-12-24T13:54:59;0.57;;;0.30;;
9280;SDS011;4679;47.966;7.958;2022-12-24T13:57:21;1.70;;;0.27;;
9280;SDS011;4679;47.966;7.958;2022-12-24T13:59:29;0.80;;;0.30;;
9280;SDS011;4679;47.966;7.958;2022-12-24T14:01:36;1.47;;;0.40;;
9280;SDS011;4679;47.966;7.958;2022-12-24T14:03:42;0.80;;;0.40;;
9280;SDS011;4679;47.966;7.958;2022-12-24T14:05:48;1.50;;;0.40;;
9280;SDS011;4679;47.966;7.958;2022-12-24T14:07:52;1.90;;;0.37;;
9280;SDS011;4679;47.966;7.958;2022-12-24T14:09:56;1.93;;;0.40;;
9280;SDS011;4679;47.966;7.958;2022-12-24T14:12:12;0.97;;;0.43;;
9280;SDS011;4679;47.966;7.958;2022-12-24T14:14:26;1.83;;;0.77;;
9280;SDS011;4679;47.966;7.958;2022-12-24T14:16:39;4.17;;;1.10;;
9280;SDS011;4679;47.966;7.958;2022-12-24T14:18:45;2.07;;;1.03;;
9280;SDS011;4679;47.966;7.958;2022-12-24T14:20:50;2.47;;;1.30;;
9280;SDS011;4679;47.966;7.958;2022-12-24T14:22:54;2.63;;;0.60;;
9280;SDS011;4679;47.966;7.958;2022-12-24T14:24:57;2.40;;;0.50;;
9280;SDS011;4679;47.966;7.958;2022-12-24T14:27:05;0.40;;;0.40;;
9280;SDS011;4679;47.966;7.958;2022-12-24T14:29:15;2.03;;;0.80;;
9280;SDS011;4679;47.966;7.958;2022-12-24T14:31:25;2.57;;;0.70;;
9280;SDS011;4679;47.966;7.958;2022-12-24T14:33:27;2.23;;;0.60;;
9280;SDS011;4679;47.966;7.958;2022-12-24T14:35:30;2.20;;;0.60;;
9280;SDS011;4679;47.966;7.958;2022-12-24T14:37:37;3.23;;;1.00;;
9280;SDS011;4679;47.966;7.958;2022-12-24T14:39:40;1.77;;;0.90;;
9280;SDS011;4679;47.966;7.958;2022-12-24T14:41:45;1.63;;;0.63;;
9280;SDS011;4679;47.966;7.958;2022-12-24T14:43:55;1.20;;;0.57;;
9280;SDS011;4679;47.966;7.958;2022-12-24T14:46:06;0.73;;;0.50;;
9280;SDS011;4679;47.966;7.958;2022-12-24T14:48:16;2.50;;;0.60;;
9280;SDS011;4679;47.966;7.958;2022-12-24T14:50:32;0.70;;;0.57;;
9280;SDS011;4679;47.966;7.958;2022-12-24T14:52:41;1.80;;;0.67;;
9280;SDS011;4679;47.966;7.958;2022-12-24T14:54:49;2.03;;;0.60;;
9280;SDS011;4679;47.966;7.958;2022-12-24T14:57:05;1.73;;;0.40;;
9280;SDS011;4679;47.966;7.958;2022-12-24T14:59:15;1.73;;;0.70;;
9280;SDS011;4679;47.966;7.958;2022-12-24T15:01:19;1.53;;;0.60;;
9280;SDS011;4679;47.966;7.958;2022-12-24T15:03:25;1.53;;;0.40;;
9280;SDS011;4679;47.966;7.958;2022-12-24T15:05:28;1.47;;;0.60;;
9280;SDS011;4679;47.966;7.958;2022-12-24T15:07:30;1.27;;;1.13;;
9280;SDS011;4679;47.966;7.958;2022-12-24T15:09:33;0.83;;;0.47;;
9280;SDS011;4679;47.966;7.958;2022-12-24T15:11:40;1.47;;;0.30;;
9280;SDS011;4679;47.966;7.958;2022-12-24T15:13:44;1.40;;;0.87;;
9280;SDS011;4679;47.966;7.958;2022-12-24T15:15:49;0.70;;;0.40;;
9280;SDS011;4679;47.966;7.958;2022-12-24T15:17:52;0.53;;;0.40;;
9280;SDS011;4679;47.966;7.958;2022-12-24T15:19:57;1.90;;;0.40;;
9280;SDS011;4679;47.966;7.958;2022-12-24T15:22:00;1.47;;;0.63;;
9280;SDS011;4679;47.966;7.958;2022-12-24T15:24:04;1.63;;;0.43;;
9280;SDS011;4679;47.966;7.958;2022-12-24T15:26:24;4.87;;;0.60;;
9280;SDS011;4679;47.966;7.958;2022-12-24T15:28:33;2.17;;;0.60;;
9280;SDS011;4679;47.966;7.958;2022-12-24T15:30:36;1.57;;;0.30;;
9280;SDS011;4679;47.966;7.958;2022-12-24T15:32:38;1.33;;;0.50;;
9280;SDS011;4679;47.966;7.958;2022-12-24T15:34:41;3.30;;;0.60;;
9280;SDS011;4679;47.966;7.958;2022-12-24T15:36:48;0.57;;;0.40;;
9280;SDS011;4679;47.966;7.958;2022-12-24T15:38:52;2.00;;;0.60;;
9280;SDS011;4679;47.966;7.958;2022-12-24T15:40:56;0.73;;;0.57;;
9280;SDS011;4679;47.966;7.958;2022-12-24T15:42:58;0.97;;;0.37;;
9280;SDS011;4679;47.966;7.958;2022-12-24T15:45:02;1.07;;;0.50;;
9280;SDS011;4679;47.966;7.958;2022-12-24T15:47:06;0.80;;;0.40;;
9280;SDS011;4679;47.966;7.958;2022-12-24T15:49:14;0.53;;;0.40;;
9280;SDS011;4679;47.966;7.958;2022-12-24T15:51:21;1.20;;;0.33;;
9280;SDS011;4679;47.966;7.958;2022-12-24T15:53:27;0.50;;;0.40;;
9280;SDS011;4679;47.966;7.958;2022-12-24T15:55:32;0.57;;;0.40;;
9280;SDS011;4679;47.966;7.958;2022-12-24T15:57:36;0.80;;;0.60;;
9280;SDS011;4679;47.966;7.958;2022-12-24T15:59:38;3.13;;;0.70;;
9280;SDS011;4679;47.966;7.958;2022-12-24T16:01:41;1.90;;;0.50;;
9280;SDS011;4679;47.966;7.958;2022-12-24T16:03:53;2.03;;;0.90;;
9280;SDS011;4679;47.966;7.958;2022-12-24T16:05:59;2.50;;;0.80;;
9280;SDS011;4679;47.966;7.958;2022-12-24T16:08:02;2.50;;;0.80;;
9280;SDS011;4679;47.966;7.958;2022-12-24T16:10:23;2.63;;;0.70;;
9280;SDS011;4679;47.966;7.958;2022-12-24T16:12:24;1.20;;;0.80;;
9280;SDS011;4679;47.966;7.958;2022-12-24T16:14:26;1.37;;;0.90;;
9280;SDS011;4679;47.966;7.958;2022-12-24T16:16:31;1.57;;;0.73;;
9280;SDS011;4679;47.966;7.958;2022-12-24T16:18:35;2.40;;;1.07;;
9280;SDS011;4679;47.966;7.958;2022-12-24T16:20:38;3.50;;;1.33;;
9280;SDS011;4679;47.966;7.958;2022-12-24T16:22:48;1.33;;;0.90;;
9280;SDS011;4679;47.966;7.958;2022-12-24T16:24:51;2.03;;;0.80;;
9280;SDS011;4679;47.966;7.958;2022-12-24T16:26:56;0.97;;;0.87;;
9280;SDS011;4679;47.966;7.958;2022-12-24T16:28:58;2.60;;;1.00;;
9280;SDS011;4679;47.966;7.958;2022-12-24T16:30:59;1.50;;;1.00;;
9280;SDS011;4679;47.966;7.958;2022-12-24T16:33:01;1.43;;;0.97;;
9280;SDS011;4679;47.966;7.958;2022-12-24T16:35:04;1.93;;;0.70;;
9280;SDS011;4679;47.966;7.958;2022-12-24T16:37:07;1.00;;;0.50;;
9280;SDS011;4679;47.966;7.958;2022-12-24T16:39:09;2.93;;;0.50;;
9280;SDS011;4679;47.966;7.958;2022-12-24T16:41:24;0.60;;;0.60;;
9280;SDS011;4679;47.966;7.958;2022-12-24T16:43:27;0.93;;;0.60;;
9280;SDS011;4679;47.966;7.958;2022-12-24T16:45:47;0.83;;;0.43;;
9280;SDS011;4679;47.966;7.958;2022-12-24T16:47:49;2.53;;;1.00;;
9280;SDS011;4679;47.966;7.958;2022-12-24T16:49:51;0.97;;;0.70;;
9280;SDS011;4679;47.966;7.958;2022-12-24T16:51:52;2.30;;;0.70;;
9280;SDS011;4679;47.966;7.958;2022-12-24T16:53:56;1.63;;;0.93;;
9280;SDS011;4679;47.966;7.958;2022-12-24T16:55:57;1.30;;;0.50;;
9280;SDS011;4679;47.966;7.958;2022-12-24T16:57:59;1.63;;;0.40;;
9280;SDS011;4679;47.966;7.958;2022-12-24T17:00:03;2.27;;;0.50;;
9280;SDS011;4679;47.966;7.958;2022-12-24T17:02:08;0.60;;;0.50;;
9280;SDS011;4679;47.966;7.958;2022-12-24T17:04:13;0.70;;;0.37;;
9280;SDS011;4679;47.966;7.958;2022-12-24T17:06:15;0.33;;;0.30;;
9280;SDS011;4679;47.966;7.958;2022-12-24T17:08:17;0.57;;;0.20;;
9280;SDS011;4679;47.966;7.958;2022-12-24T17:10:19;0.70;;;0.33;;
9280;SDS011;4679;47.966;7.958;2022-12-24T17:12:21;0.20;;;0.20;;
9280;SDS011;4679;47.966;7.958;2022-12-24T17:14:22;0.43;;;0.40;;
9280;SDS011;4679;47.966;7.958;2022-12-24T17:16:26;1.13;;;0.60;;
9280;SDS011;4679;47.966;7.958;2022-12-24T17:18:28;0.20;;;0.20;;
9280;SDS011;4679;47.966;7.958;2022-12-24T17:20:30;0.30;;;0.30;;
9280;SDS011;4679;47.966;7.958;2022-12-24T17:22:32;0.27;;;0.27;;
9280;SDS011;4679;47.966;7.958;2022-12-24T17:24:34;0.50;;;0.40;;
9280;SDS011;4679;47.966;7.958;2022-12-24T17:26:35;0.40;;;0.33;;
9280;SDS011;4679;47.966;7.958;2022-12-24T17:28:37;1.37;;;0.30;;
9280;SDS011;4679;47.966;7.958;2022-12-24T17:30:39;1.90;;;0.30;;
9280;SDS011;4679;47.966;7.958;2022-12-24T17:32:42;1.27;;;0.30;;
9280;SDS011;4679;47.966;7.958;2022-12-24T17:34:44;0.47;;;0.30;;
9280;SDS011;4679;47.966;7.958;2022-12-24T17:36:46;0.93;;;0.37;;
9280;SDS011;4679;47.966;7.958;2022-12-24T17:38:47;1.07;;;0.30;;
9280;SDS011;4679;47.966;7.958;2022-12-24T17:40:49;0.30;;;0.30;;
9280;SDS011;4679;47.966;7.958;2022-12-24T17:42:51;0.53;;;0.30;;
9280;SDS011;4679;47.966;7.958;2022-12-24T17:44:53;0.83;;;0.67;;
9280;SDS011;4679;47.966;7.958;2022-12-24T17:46:55;1.23;;;0.47;;
9280;SDS011;4679;47.966;7.958;2022-12-24T17:48:58;0.90;;;0.50;;
9280;SDS011;4679;47.966;7.958;2022-12-24T17:51:02;0.50;;;0.27;;
9280;SDS011;4679;47.966;7.958;2022-12-24T17:53:05;1.80;;;0.47;;
9280;SDS011;4679;47.966;7.958;2022-12-24T17:55:07;0.30;;;0.30;;
9280;SDS011;4679;47.966;7.958;2022-12-24T17:57:09;0.60;;;0.37;;
9280;SDS011;4679;47.966;7.958;2022-12-24T17:59:11;0.60;;;0.60;;
9280;SDS011;4679;47.966;7.958;2022-12-24T18:01:14;2.60;;;0.70;;
9280;SDS011;4679;47.966;7.958;2022-12-24T18:03:18;1.97;;;0.90;;
9280;SDS011;4679;47.966;7.958;2022-12-24T18:05:21;2.13;;;0.90;;
9280;SDS011;4679;47.966;7.958;2022-12-24T18:07:23;1.27;;;0.70;;
9280;SDS011;4679;47.966;7.958;2022-12-24T18:09:25;4.30;;;2.47;;
9280;SDS011;4679;47.966;7.958;2022-12-24T18:11:28;3.13;;;2.00;;
9280;SDS011;4679;47.966;7.958;2022-12-24T18:13:31;1.97;;;0.90;;
9280;SDS011;4679;47.966;7.958;2022-12-24T18:15:33;1.13;;;1.03;;
9280;SDS011;4679;47.966;7.958;2022-12-24T18:17:36;1.47;;;0.70;;
9280;SDS011;4679;47.966;7.958;2022-12-24T18:19:38;0.60;;;0.60;;
9280;SDS011;4679;47.966;7.958;2022-12-24T18:21:41;2.00;;;1.20;;
9280;SDS011;4679;47.966;7.958;2022-12-24T18:23:44;2.03;;;1.30;;
9280;SDS011;4679;47.966;7.958;2022-12-24T18:25:47;3.33;;;1.70;;
9280;SDS011;4679;47.966;7.958;2022-12-24T18:27:49;5.00;;;4.27;;
9280;SDS011;4679;47.966;7.958;2022-12-24T18:29:50;5.33;;;4.77;;
9280;SDS011;4679;47.966;7.958;2022-12-24T18:31:52;6.70;;;5.57;;
9280;SDS011;4679;47.966;7.958;2022-12-24T18:33:54;2.63;;;1.20;;
9280;SDS011;4679;47.966;7.958;2022-12-24T18:35:56;3.47;;;1.40;;
9280;SDS011;4679;47.966;7.958;2022-12-24T18:37:59;2.73;;;1.60;;
9280;SDS011;4679;47.966;7.958;2022-12-24T18:40:01;2.60;;;1.10;;
9280;SDS011;4679;47.966;7.958;2022-12-24T18:42:04;0.60;;;0.47;;
9280;SDS011;4679;47.966;7.958;2022-12-24T18:44:07;0.50;;;0.50;;
9280;SDS011;4679;47.966;7.958;2022-12-24T18:46:10;0.50;;;0.50;;
9280;SDS011;4679;47.966;7.958;2022-12-24T18:48:13;2.50;;;1.00;;
9280;SDS011;4679;47.966;7.958;2022-12-24T18:50:15;1.10;;;0.53;;
9280;SDS011;4679;47.966;7.958;2022-12-24T18:52:17;0.70;;;0.67;;
9280;SDS011;4679;47.966;7.958;2022-12-24T18:54:20;2.13;;;0.70;;
9280;SDS011;4679;47.966;7.958;2022-12-24T18:56:23;1.03;;;0.67;;
9280;SDS011;4679;47.966;7.958;2022-12-24T18:58:26;1.70;;;0.60;;
9280;SDS011;4679;47.966;7.958;2022-12-24T19:00:28;2.33;;;0.67;;
9280;SDS011;4679;47.966;7.958;2022-12-24T19:02:30;0.40;;;0.40;;
9280;SDS011;4679;47.966;7.958;2022-12-24T19:04:32;1.10;;;0.50;;
9280;SDS011;4679;47.966;7.958;2022-12-24T19:06:34;0.70;;;0.40;;
9280;SDS011;4679;47.966;7.958;2022-12-24T19:08:36;0.37;;;0.30;;
9280;SDS011;4679;47.966;7.958;2022-12-24T19:10:40;0.40;;;0.40;;
9280;SDS011;4679;47.966;7.958;2022-12-24T19:12:41;0.83;;;0.60;;
9280;SDS011;4679;47.966;7.958;2022-12-24T19:14:43;1.50;;;1.00;;
9280;SDS011;4679;47.966;7.958;2022-12-24T19:16:45;4.43;;;2.17;;
9280;SDS011;4679;47.966;7.958;2022-12-24T19:18:46;1.33;;;1.20;;
9280;SDS011;4679;47.966;7.958;2022-12-24T19:20:48;3.97;;;1.10;;
9280;SDS011;4679;47.966;7.958;2022-12-24T19:22:50;1.50;;;0.97;;
9280;SDS011;4679;47.966;7.958;2022-12-24T19:24:52;2.07;;;1.30;;
9280;SDS011;4679;47.966;7.958;2022-12-24T19:26:55;2.87;;;1.00;;
9280;SDS011;4679;47.966;7.958;2022-12-24T19:28:57;2.57;;;1.23;;
9280;SDS011;4679;47.966;7.958;2022-12-24T19:31:02;2.73;;;1.30;;
9280;SDS011;4679;47.966;7.958;2022-12-24T19:33:05;2.10;;;1.50;;
9280;SDS011;4679;47.966;7.958;2022-12-24T19:35:07;1.60;;;1.50;;
9280;SDS011;4679;47.966;7.958;2022-12-24T19:37:09;2.80;;;2.20;;
9280;SDS011;4679;47.966;7.958;2022-12-24T19:39:11;3.40;;;2.20;;
9280;SDS011;4679;47.966;7.958;2022-12-24T19:41:13;2.83;;;2.17;;
9280;SDS011;4679;47.966;7.958;2022-12-24T19:43:19;3.20;;;1.60;;
9280;SDS011;4679;47.966;7.958;2022-12-24T19:45:23;1.90;;;1.50;;
9280;SDS011;4679;47.966;7.958;2022-12-24T19:47:25;3.50;;;1.37;;
9280;SDS011;4679;47.966;7.958;2022-12-24T19:49:27;2.33;;;1.67;;
9280;SDS011;4679;47.966;7.958;2022-12-24T19:51:29;2.30;;;1.20;;
9280;SDS011;4679;47.966;7.958;2022-12-24T19:53:31;3.07;;;1.57;;
9280;SDS011;4679;47.966;7.958;2022-12-24T19:55:33;4.93;;;3.03;;
9280;SDS011;4679;47.966;7.958;2022-12-24T19:57:35;4.63;;;3.10;;
9280;SDS011;4679;47.966;7.958;2022-12-24T19:59:40;12.70;;;7.50;;
9280;SDS011;4679;47.966;7.958;2022-12-24T20:01:42;8.00;;;5.40;;
9280;SDS011;4679;47.966;7.958;2022-12-24T20:03:46;7.07;;;4.80;;
9280;SDS011;4679;47.966;7.958;2022-12-24T20:05:49;7.17;;;4.40;;
9280;SDS011;4679;47.966;7.958;2022-12-24T20:07:53;3.93;;;2.50;;
9280;SDS011;4679;47.966;7.958;2022-12-24T20:09:55;1.60;;;1.50;;
9280;SDS011;4679;47.966;7.958;2022-12-24T20:11:57;1.30;;;1.20;;
9280;SDS011;4679;47.966;7.958;2022-12-24T20:14:00;1.30;;;1.20;;
9280;SDS011;4679;47.966;7.958;2022-12-24T20:16:05;1.33;;;0.90;;
9280;SDS011;4679;47.966;7.958;2022-12-24T20:18:08;0.80;;;0.80;;
9280;SDS011;4679;47.966;7.958;2022-12-24T20:20:11;1.17;;;0.77;;
9280;SDS011;4679;47.966;7.958;2022-12-24T20:22:13;1.20;;;0.70;;
9280;SDS011;4679;47.966;7.958;2022-12-24T20:24:15;0.80;;;0.80;;
9280;SDS011;4679;47.966;7.958;2022-12-24T20:26:17;0.93;;;0.70;;